Time;durP1;ratioP1;P1;durP2;ratioP2;P2;SDS_P1;SDS_P2;PMS_P1;PMS_P2;Temp;Humidity;BMP_temperature;BMP_pressure;BME280_temperature;BME280_humidity;BME280_pressure;Samples;Min_cycle;Max_cycle;Signal;HPM_P1;HPM_P2
2022/05/04 00:01:32;;;;;;;17.23;16.27;;;13.30;56.90;;;;;;5030363;28;20222;-79
2022/05/04 00:03:58;;;;;;;17.10;16.13;;;13.20;57.50;;;;;;5029742;28;20208;-80
2022/05/04 00:06:24;;;;;;;17.03;16.03;;;13.20;57.60;;;;;;5029883;28;20188;-80
2022/05/04 00:08:50;;;;;;;17.50;16.47;;;13.20;57.50;;;;;;5030151;28;20423;-80
2022/05/04 00:11:16;;;;;;;17.53;16.53;;;13.10;57.70;;;;;;5029438;28;20232;-80
2022/05/04 00:13:42;;;;;;;16.60;15.67;;;13.20;57.80;;;;;;5029562;28;20411;-80
2022/05/04 00:16:07;;;;;;;16.80;15.70;;;13.20;57.70;;;;;;5029335;28;20416;-80
2022/05/04 00:18:33;;;;;;;17.90;16.80;;;13.10;57.60;;;;;;5029900;28;20763;-80
2022/05/04 00:20:59;;;;;;;16.37;15.47;;;13.00;58.10;;;;;;5029892;28;20172;-81
2022/05/04 00:23:25;;;;;;;17.27;16.37;;;13.10;58.10;;;;;;5030277;28;20439;-80
2022/05/04 00:25:51;;;;;;;17.33;16.43;;;13.00;58.20;;;;;;5030340;28;20275;-81
2022/05/04 00:28:17;;;;;;;18.43;17.33;;;13.00;58.20;;;;;;5030604;28;20546;-81
2022/05/04 00:30:43;;;;;;;17.50;16.40;;;12.90;58.80;;;;;;5030500;28;20532;-81
2022/05/04 00:33:09;;;;;;;17.67;16.57;;;12.80;59.90;;;;;;5029880;28;20418;-81
2022/05/04 00:35:35;;;;;;;17.60;16.60;;;12.80;60.30;;;;;;5029744;28;20514;-81
2022/05/04 00:38:01;;;;;;;16.70;15.70;;;12.80;60.50;;;;;;5030260;28;20407;-81
2022/05/04 00:40:27;;;;;;;17.10;16.10;;;12.90;60.10;;;;;;5029623;28;20528;-79
2022/05/04 00:42:53;;;;;;;16.33;15.43;;;12.90;59.80;;;;;;5029477;28;20756;-81
2022/05/04 00:45:18;;;;;;;17.13;16.23;;;13.00;59.10;;;;;;5029833;28;20663;-80
2022/05/04 00:47:44;;;;;;;17.97;16.97;;;13.00;58.80;;;;;;5029352;28;20195;-81
2022/05/04 00:50:10;;;;;;;16.57;15.57;;;13.00;58.20;;;;;;5029389;28;20292;-79
2022/05/04 00:52:40;;;;;;;17.70;16.40;;;13.00;57.80;;;;;;5030081;28;20271;-81
2022/05/04 00:55:08;;;;;;;18.30;17.17;;;13.00;57.60;;;;;;5029519;28;20407;-81
2022/05/04 01:00:21;;;;;;;17.83;16.93;;;12.90;57.30;;;;;;5031451;28;20418;-81
2022/05/04 01:02:47;;;;;;;19.63;18.43;;;12.80;57.30;;;;;;5030550;28;20418;-81
2022/05/04 01:05:13;;;;;;;18.87;17.63;;;12.80;57.80;;;;;;5030626;28;20415;-81
2022/05/04 01:07:40;;;;;;;18.90;17.80;;;12.70;58.20;;;;;;5030582;28;20219;-81
2022/05/04 01:10:08;;;;;;;19.10;18.20;;;12.70;58.20;;;;;;5030451;28;20787;-83
2022/05/04 01:12:34;;;;;;;21.13;20.10;;;12.50;59.90;;;;;;5029065;28;20411;-85
2022/05/04 01:15:00;;;;;;;20.33;19.13;;;12.30;60.70;;;;;;5029142;28;20801;-85
2022/05/04 01:17:29;;;;;;;18.40;17.40;;;12.40;60.70;;;;;;5028759;28;20422;-85
2022/05/04 01:19:59;;;;;;;20.00;18.50;;;12.60;59.40;;;;;;5028335;28;20419;-85
2022/05/04 01:22:24;;;;;;;18.00;17.00;;;12.80;58.10;;;;;;5028567;28;20426;-85
2022/05/04 01:24:50;;;;;;;18.03;17.00;;;12.80;57.80;;;;;;5028224;28;20435;-85
2022/05/04 01:27:16;;;;;;;18.23;16.93;;;12.70;58.00;;;;;;5031605;28;20184;-85
2022/05/04 01:29:42;;;;;;;18.67;17.50;;;12.70;58.10;;;;;;5032269;28;20407;-85
2022/05/04 01:32:08;;;;;;;18.00;16.80;;;12.60;59.00;;;;;;5031923;28;20620;-84
2022/05/04 01:34:34;;;;;;;18.43;17.33;;;12.60;59.70;;;;;;5032059;28;20552;-84
2022/05/04 01:37:01;;;;;;;18.40;17.23;;;12.50;60.70;;;;;;5032069;28;20411;-84
2022/05/04 01:39:26;;;;;;;18.60;17.60;;;12.40;61.40;;;;;;5032182;28;20173;-85
2022/05/04 01:42:05;;;;;;;18.30;17.27;;;12.40;60.70;;;;;;5031856;28;20926;-85
2022/05/04 01:44:32;;;;;;;18.70;17.50;;;12.40;61.20;;;;;;5031901;28;20565;-85
2022/05/04 01:46:58;;;;;;;18.07;17.07;;;12.40;60.90;;;;;;5031365;28;20419;-85
2022/05/04 01:49:23;;;;;;;17.90;16.90;;;12.60;60.00;;;;;;5032021;28;20415;-85
2022/05/04 01:51:49;;;;;;;18.10;17.00;;;12.60;59.90;;;;;;5031346;28;21005;-84
2022/05/04 01:54:15;;;;;;;18.53;17.53;;;12.50;60.80;;;;;;5031328;28;20185;-85
2022/05/04 01:56:40;;;;;;;18.63;17.57;;;12.30;60.90;;;;;;5031622;28;20200;-85
2022/05/04 01:59:06;;;;;;;19.20;18.10;;;12.20;61.70;;;;;;5031555;28;20586;-85
2022/05/04 02:01:32;;;;;;;18.90;17.90;;;12.30;62.00;;;;;;5030691;28;20176;-84
2022/05/04 02:03:58;;;;;;;17.83;16.93;;;12.30;62.30;;;;;;5031384;28;20263;-84
2022/05/04 02:06:24;;;;;;;18.27;17.27;;;12.50;60.90;;;;;;5031363;28;20177;-85
2022/05/04 02:08:51;;;;;;;19.70;18.70;;;12.60;60.70;;;;;;5030702;28;20419;-84
2022/05/04 02:11:17;;;;;;;17.03;16.03;;;12.60;60.50;;;;;;5031485;28;20462;-85
2022/05/04 02:13:43;;;;;;;18.67;17.67;;;12.60;60.40;;;;;;5031052;28;20427;-84
2022/05/04 02:16:09;;;;;;;18.03;16.83;;;12.40;61.40;;;;;;5031345;28;20420;-85
2022/05/04 02:18:34;;;;;;;18.40;17.40;;;12.40;61.90;;;;;;5030679;28;20213;-84
2022/05/04 02:21:00;;;;;;;17.80;16.90;;;12.40;62.40;;;;;;5030833;28;20189;-85
2022/05/04 02:23:26;;;;;;;18.33;17.33;;;12.30;62.10;;;;;;5030757;28;20195;-85
2022/05/04 02:25:52;;;;;;;21.80;20.40;;;12.20;63.60;;;;;;5031023;28;20423;-84
2022/05/04 02:28:18;;;;;;;18.43;17.43;;;12.30;63.20;;;;;;5032112;28;20628;-84
2022/05/04 02:30:44;;;;;;;18.43;17.33;;;12.30;63.00;;;;;;5030898;28;20212;-85
2022/05/04 02:33:10;;;;;;;18.20;17.30;;;12.30;62.80;;;;;;5030373;28;20423;-85
2022/05/04 02:38:21;;;;;;;18.73;17.70;;;12.30;63.00;;;;;;5031473;28;20426;-85
2022/05/04 02:40:47;;;;;;;19.97;18.67;;;12.30;63.20;;;;;;5031056;28;20427;-85
2022/05/04 02:43:14;;;;;;;19.13;18.03;;;12.30;62.50;;;;;;5030136;28;20426;-85
2022/05/04 02:45:40;;;;;;;19.03;18.03;;;12.30;63.20;;;;;;5030390;28;20427;-84
2022/05/04 02:48:07;;;;;;;18.80;17.80;;;12.40;62.70;;;;;;5029731;28;20431;-84
2022/05/04 02:50:34;;;;;;;19.30;17.97;;;12.40;63.20;;;;;;5029698;28;20804;-84
2022/05/04 02:53:00;;;;;;;18.60;17.70;;;12.50;62.60;;;;;;5030523;28;20518;-84
2022/05/04 02:55:25;;;;;;;18.20;17.30;;;12.60;62.30;;;;;;5030353;28;20851;-84
2022/05/04 02:57:51;;;;;;;20.33;18.97;;;12.60;61.40;;;;;;5029758;28;20230;-84
2022/05/04 03:00:17;;;;;;;18.70;17.60;;;12.50;61.60;;;;;;5029838;28;20177;-84
2022/05/04 03:02:44;;;;;;;18.80;17.70;;;12.50;62.10;;;;;;5030197;28;20204;-84
2022/05/04 03:05:11;;;;;;;19.33;18.10;;;12.60;61.90;;;;;;5030966;28;20416;-84
2022/05/04 03:07:37;;;;;;;21.33;20.20;;;12.70;60.60;;;;;;5029680;28;20931;-84
2022/05/04 03:10:03;;;;;;;21.40;20.20;;;12.50;61.70;;;;;;5029828;28;20422;-85
2022/05/04 03:12:29;;;;;;;19.30;18.10;;;12.40;62.60;;;;;;5029915;28;20463;-85
2022/05/04 03:14:55;;;;;;;18.80;17.80;;;12.30;62.80;;;;;;5030119;28;20423;-85
2022/05/04 03:17:20;;;;;;;20.97;19.67;;;12.30;63.00;;;;;;5030197;28;20176;-84
2022/05/04 03:19:47;;;;;;;20.47;18.83;;;12.20;62.50;;;;;;5030561;28;20230;-85
2022/05/04 03:22:13;;;;;;;19.13;18.00;;;12.20;62.30;;;;;;5029555;28;20279;-85
2022/05/04 03:24:39;;;;;;;20.50;19.00;;;12.30;62.70;;;;;;5029799;28;20530;-84
2022/05/04 03:27:05;;;;;;;20.27;18.93;;;12.40;62.00;;;;;;5031275;28;20916;-85
2022/05/04 03:29:31;;;;;;;19.77;18.60;;;12.30;61.70;;;;;;5030528;28;20177;-85
2022/05/04 03:31:57;;;;;;;20.27;18.63;;;12.30;61.90;;;;;;5030186;28;20834;-86
2022/05/04 03:34:23;;;;;;;20.80;19.60;;;12.40;62.10;;;;;;5030037;28;20172;-85
2022/05/04 03:36:48;;;;;;;19.70;18.60;;;12.50;61.30;;;;;;5030970;28;20422;-85
2022/05/04 03:39:14;;;;;;;19.30;18.30;;;12.60;60.70;;;;;;5030870;28;20183;-85
2022/05/04 03:41:44;;;;;;;19.00;17.97;;;12.60;60.60;;;;;;5030943;28;20271;-90
2022/05/04 03:44:11;;;;;;;18.93;17.97;;;12.70;60.20;;;;;;5031339;28;20543;-89
2022/05/04 03:46:45;;;;;;;19.30;18.27;;;12.60;60.10;;;;;;5021166;28;20424;-90
2022/05/04 03:49:11;;;;;;;19.57;18.47;;;12.70;60.10;;;;;;5023681;28;20412;-80
2022/05/04 03:51:37;;;;;;;18.80;17.70;;;12.70;59.50;;;;;;5023356;28;20605;-82
2022/05/04 03:54:03;;;;;;;19.80;18.70;;;12.60;60.30;;;;;;5031855;28;20443;-79
2022/05/04 03:56:29;;;;;;;18.00;16.80;;;12.60;60.90;;;;;;5030980;28;20433;-80
2022/05/04 03:58:55;;;;;;;19.07;17.97;;;12.60;60.60;;;;;;5033339;28;20470;-80
2022/05/04 04:01:22;;;;;;;20.30;19.03;;;12.60;60.80;;;;;;5031927;28;20423;-80
2022/05/04 04:03:47;;;;;;;19.83;18.70;;;12.60;61.00;;;;;;5031944;28;20227;-81
2022/05/04 04:06:13;;;;;;;19.63;18.23;;;12.70;60.80;;;;;;5031838;28;20448;-80
2022/05/04 04:08:39;;;;;;;20.67;19.37;;;12.60;60.80;;;;;;5032025;28;20724;-80
2022/05/04 04:11:05;;;;;;;21.10;19.40;;;12.60;61.30;;;;;;5031793;28;20208;-80
2022/05/04 04:13:31;;;;;;;19.80;18.70;;;12.50;61.60;;;;;;5031580;28;20415;-80
2022/05/04 04:16:03;;;;;;;19.50;18.33;;;12.50;62.10;;;;;;5031387;28;20177;-80
2022/05/04 04:18:34;;;;;;;20.40;19.20;;;12.60;62.00;;;;;;5031298;28;20412;-80
2022/05/04 04:23:44;;;;;;;19.27;18.20;;;12.70;61.60;;;;;;5032627;28;20981;-80
2022/05/04 04:26:10;;;;;;;20.37;19.17;;;12.80;60.70;;;;;;5030994;28;20424;-81
2022/05/04 04:28:40;;;;;;;19.87;18.77;;;12.80;60.50;;;;;;5031138;28;20180;-80
2022/05/04 04:31:08;;;;;;;18.90;17.80;;;12.70;60.30;;;;;;5031064;28;20266;-81
2022/05/04 04:33:35;;;;;;;19.20;18.00;;;12.70;60.40;;;;;;5030834;28;20419;-80
2022/05/04 04:36:01;;;;;;;19.10;18.00;;;12.50;61.30;;;;;;5030894;28;20422;-80
2022/05/04 04:38:28;;;;;;;19.77;18.37;;;12.50;61.80;;;;;;5030916;28;20415;-81
2022/05/04 04:40:54;;;;;;;19.97;18.70;;;12.60;62.20;;;;;;5030985;28;20430;-80
2022/05/04 04:43:19;;;;;;;18.97;17.87;;;12.60;61.90;;;;;;5030859;28;20423;-80
2022/05/04 04:45:47;;;;;;;19.33;18.17;;;12.50;61.80;;;;;;5030634;28;20628;-80
2022/05/04 04:48:16;;;;;;;19.83;18.73;;;12.50;62.00;;;;;;5032186;28;20231;-79
2022/05/04 04:50:44;;;;;;;19.50;18.40;;;12.50;62.60;;;;;;5029773;28;20463;-81
2022/05/04 04:53:10;;;;;;;19.37;18.27;;;12.60;61.90;;;;;;5030705;28;20418;-81
2022/05/04 04:55:36;;;;;;;19.30;17.90;;;12.70;61.40;;;;;;5031095;28;20430;-81
2022/05/04 04:58:02;;;;;;;19.80;18.70;;;12.70;61.70;;;;;;5031757;28;20226;-80
2022/05/04 05:00:28;;;;;;;19.90;18.80;;;12.70;61.50;;;;;;5031241;28;20207;-82
2022/05/04 05:02:54;;;;;;;19.93;18.80;;;12.60;61.50;;;;;;5034766;28;20440;-81
2022/05/04 05:05:19;;;;;;;20.57;19.30;;;12.70;61.40;;;;;;5033754;28;20544;-80
2022/05/04 05:07:45;;;;;;;21.17;19.77;;;12.70;61.30;;;;;;5034217;28;20422;-81
2022/05/04 05:10:12;;;;;;;22.70;21.30;;;12.60;61.20;;;;;;5019308;28;20171;-81
2022/05/04 05:12:38;;;;;;;23.20;21.90;;;12.60;60.50;;;;;;5018938;28;20672;-81
2022/05/04 05:17:48;;;;;;;22.07;20.53;;;12.60;61.50;;;;;;5016820;28;20268;-81
2022/05/04 05:20:14;;;;;;;20.93;19.83;;;12.70;62.00;;;;;;5004310;28;20498;-81
2022/05/04 05:22:39;;;;;;;20.50;19.30;;;12.70;61.50;;;;;;5011888;28;20188;-81
2022/05/04 05:25:05;;;;;;;20.87;19.67;;;12.80;61.50;;;;;;5029764;28;20251;-81
2022/05/04 05:27:32;;;;;;;21.17;19.97;;;12.90;61.50;;;;;;5032615;28;20187;-80
2022/05/04 05:29:57;;;;;;;21.30;19.83;;;12.80;61.00;;;;;;5032343;28;20411;-80
2022/05/04 05:32:23;;;;;;;21.47;20.30;;;12.80;61.20;;;;;;5034673;28;20513;-80
2022/05/04 05:34:50;;;;;;;22.60;21.20;;;12.80;61.40;;;;;;5026800;28;20558;-81
2022/05/04 05:37:16;;;;;;;20.87;19.67;;;12.90;61.40;;;;;;5034907;28;20180;-80
2022/05/04 05:39:42;;;;;;;21.03;19.83;;;12.80;61.10;;;;;;5034796;28;20769;-80
2022/05/04 05:42:09;;;;;;;21.23;20.03;;;12.90;62.70;;;;;;5034048;28;20423;-80
2022/05/04 05:44:34;;;;;;;23.03;21.63;;;12.90;62.70;;;;;;5033776;28;20635;-81
2022/05/04 05:47:01;;;;;;;22.03;20.73;;;12.80;62.70;;;;;;5033957;28;20471;-80
2022/05/04 05:49:27;;;;;;;22.00;20.67;;;12.90;63.30;;;;;;5033845;28;20193;-81
2022/05/04 05:51:53;;;;;;;21.80;20.63;;;13.00;63.90;;;;;;5033972;28;20465;-80
2022/05/04 05:54:18;;;;;;;23.13;21.73;;;13.00;63.30;;;;;;5034400;28;20430;-80
2022/05/04 05:56:44;;;;;;;20.53;19.43;;;13.00;64.20;;;;;;5034881;28;20184;-80
2022/05/04 05:59:11;;;;;;;21.63;20.47;;;13.10;63.10;;;;;;5035773;28;20177;-82
2022/05/04 06:01:37;;;;;;;23.00;21.70;;;13.00;60.50;;;;;;5035155;28;20211;-86
2022/05/04 06:04:03;;;;;;;21.37;20.03;;;13.00;61.40;;;;;;5035983;28;20415;-82
2022/05/04 06:06:31;;;;;;;22.87;21.27;;;13.20;62.60;;;;;;5034347;28;20191;-87
2022/05/04 06:08:59;;;;;;;23.93;22.53;;;13.10;61.50;;;;;;5034088;28;20423;-87
2022/05/04 06:11:25;;;;;;;22.67;21.37;;;13.20;61.60;;;;;;5033510;28;20553;-87
2022/05/04 06:13:54;;;;;;;22.80;21.50;;;13.30;61.30;;;;;;5032462;28;20848;-87
2022/05/04 06:16:20;;;;;;;23.30;21.90;;;13.40;60.80;;;;;;5033630;28;20177;-88
2022/05/04 06:18:46;;;;;;;22.73;21.30;;;13.40;60.10;;;;;;5033765;28;20477;-86
2022/05/04 06:21:11;;;;;;;23.40;21.90;;;13.40;61.10;;;;;;5028427;28;20924;-87
2022/05/04 06:23:37;;;;;;;23.17;21.33;;;13.50;62.80;;;;;;5030225;28;20197;-87
2022/05/04 06:26:03;;;;;;;22.27;20.60;;;13.50;63.90;;;;;;5030288;28;20643;-88
2022/05/04 06:28:29;;;;;;;20.57;19.47;;;13.50;63.60;;;;;;5033163;28;20242;-87
2022/05/04 06:36:23;;;;;;;19.60;18.53;;;13.60;62.10;;;;;;5034905;28;20419;-88
2022/05/04 06:38:48;;;;;;;20.77;19.57;;;13.70;60.00;;;;;;5034008;28;20887;-87
2022/05/04 06:41:14;;;;;;;20.73;19.70;;;13.70;59.90;;;;;;5034224;28;20184;-86
2022/05/04 06:43:40;;;;;;;20.63;19.63;;;13.80;58.70;;;;;;5032922;28;20238;-87
2022/05/04 06:46:06;;;;;;;20.73;19.63;;;14.00;58.30;;;;;;5033112;28;20659;-87
2022/05/04 06:48:32;;;;;;;21.30;20.30;;;14.00;55.80;;;;;;5032932;28;20423;-88
2022/05/04 06:50:58;;;;;;;23.65;22.25;;;14.00;55.70;;;;;;5031960;28;21012;-87
2022/05/04 06:53:23;;;;;;;22.47;21.33;;;14.00;56.20;;;;;;5034202;28;20211;-88
2022/05/04 06:55:49;;;;;;;21.73;20.63;;;14.00;54.90;;;;;;5032685;28;20185;-88
2022/05/04 06:58:15;;;;;;;23.17;21.87;;;14.00;56.00;;;;;;5032928;28;20180;-86
2022/05/04 07:00:40;;;;;;;23.10;21.80;;;14.10;55.00;;;;;;5030502;28;20185;-86
2022/05/04 07:03:06;;;;;;;24.03;22.63;;;14.10;55.70;;;;;;5032416;28;20314;-87
2022/05/04 07:05:32;;;;;;;23.80;22.50;;;14.00;54.90;;;;;;5032456;28;20183;-87
2022/05/04 07:07:58;;;;;;;22.93;21.43;;;14.10;55.10;;;;;;5016761;28;20184;-86
2022/05/04 07:10:23;;;;;;;22.37;21.27;;;14.10;54.20;;;;;;5032191;28;20187;-86
2022/05/04 07:12:50;;;;;;;22.60;21.50;;;14.20;53.70;;;;;;5031870;28;20176;-86
2022/05/04 07:15:16;;;;;;;23.07;21.97;;;14.20;52.80;;;;;;5032332;28;20263;-87
2022/05/04 07:17:41;;;;;;;21.90;20.90;;;14.20;53.20;;;;;;5032395;28;20462;-86
2022/05/04 07:20:08;;;;;;;23.17;21.77;;;14.30;53.30;;;;;;5032250;28;20466;-87
2022/05/04 07:22:35;;;;;;;23.60;22.40;;;14.20;53.40;;;;;;5032455;28;20205;-87
2022/05/04 07:25:01;;;;;;;23.13;21.83;;;14.30;53.80;;;;;;5031420;28;20529;-87
2022/05/04 07:27:26;;;;;;;22.63;21.43;;;14.30;53.40;;;;;;5032191;28;20566;-86
2022/05/04 07:29:52;;;;;;;23.80;22.60;;;14.30;53.00;;;;;;5032281;28;20415;-86
2022/05/04 07:32:17;;;;;;;24.10;22.90;;;14.40;52.60;;;;;;5031318;28;20525;-87
2022/05/04 07:34:43;;;;;;;22.50;21.40;;;14.30;52.00;;;;;;5031990;28;20268;-87
2022/05/04 07:37:09;;;;;;;25.03;23.73;;;14.30;52.00;;;;;;5032161;28;20185;-86
2022/05/04 07:42:26;;;;;;;23.50;22.20;;;14.30;52.70;;;;;;5014138;28;20486;-87
2022/05/04 07:45:05;;;;;;;23.30;21.80;;;14.40;52.50;;;;;;5031891;28;20419;-86
2022/05/04 07:47:33;;;;;;;22.47;21.37;;;14.40;52.00;;;;;;5032004;28;20423;-86
2022/05/04 07:49:59;;;;;;;22.90;21.80;;;14.30;52.00;;;;;;5031508;28;20420;-86
2022/05/04 07:52:25;;;;;;;22.07;21.07;;;14.40;51.10;;;;;;5031635;28;20551;-87
2022/05/04 07:54:52;;;;;;;21.20;20.30;;;14.40;51.20;;;;;;5031403;28;20929;-87
2022/05/04 07:57:17;;;;;;;21.30;20.30;;;14.40;52.40;;;;;;5031625;28;20416;-87
2022/05/04 08:04:16;;;;;;;21.63;20.73;;;14.60;51.30;;;;;;5031590;28;20485;-87
2022/05/04 08:05:13;;;;;;;22.60;21.50;;;14.50;51.40;;;;;;5032869;28;20437;-88
2022/05/04 08:07:38;;;;;;;22.40;21.40;;;14.60;50.80;;;;;;5031722;28;20427;-86
2022/05/04 08:10:04;;;;;;;22.93;21.87;;;14.70;50.80;;;;;;5031453;28;20184;-87
2022/05/04 08:12:32;;;;;;;22.50;21.50;;;14.70;49.70;;;;;;5031440;28;20680;-86
2022/05/04 08:14:57;;;;;;;23.10;21.93;;;14.90;49.80;;;;;;5031632;28;20415;-87
2022/05/04 08:17:23;;;;;;;23.10;22.10;;;14.80;48.20;;;;;;5031237;28;20424;-87
2022/05/04 08:19:48;;;;;;;23.17;21.90;;;14.80;48.60;;;;;;5031384;28;20558;-87
2022/05/04 08:22:14;;;;;;;22.50;21.50;;;14.80;48.70;;;;;;5031140;28;20185;-87
2022/05/04 08:24:40;;;;;;;22.43;21.43;;;14.70;48.50;;;;;;5030985;28;20200;-87
2022/05/04 08:27:06;;;;;;;22.77;21.70;;;14.80;49.40;;;;;;5031397;28;20422;-86
2022/05/04 08:29:32;;;;;;;22.27;21.27;;;14.90;48.50;;;;;;5031190;28;20223;-86
2022/05/04 08:31:59;;;;;;;23.33;22.13;;;14.80;49.20;;;;;;5031108;28;20498;-87
2022/05/04 08:34:25;;;;;;;22.20;21.20;;;14.70;50.20;;;;;;5022030;28;20247;-86
2022/05/04 08:36:50;;;;;;;21.73;20.83;;;14.80;50.50;;;;;;5010597;28;20420;-87
2022/05/04 08:39:16;;;;;;;22.43;21.43;;;14.80;50.30;;;;;;5014778;28;20411;-87
2022/05/04 08:41:43;;;;;;;22.47;20.93;;;14.70;50.80;;;;;;5031081;28;20235;-87
2022/05/04 08:44:11;;;;;;;22.23;21.23;;;14.80;51.00;;;;;;5030618;28;20184;-87
2022/05/04 08:46:42;;;;;;;21.60;20.70;;;14.80;52.50;;;;;;5031455;28;20886;-86
2022/05/04 08:49:10;;;;;;;21.13;20.23;;;14.90;51.80;;;;;;5034112;28;20817;-86
2022/05/04 08:51:36;;;;;;;22.10;20.90;;;14.90;52.80;;;;;;5030865;28;20554;-87
2022/05/04 08:54:04;;;;;;;21.90;20.80;;;14.80;52.70;;;;;;5031058;28;20465;-84
2022/05/04 08:56:31;;;;;;;22.20;20.83;;;14.80;53.40;;;;;;5031939;28;20423;-85
2022/05/04 08:58:57;;;;;;;21.57;20.50;;;14.80;53.70;;;;;;5030636;28;20466;-85
2022/05/04 09:01:24;;;;;;;20.30;19.40;;;14.80;54.60;;;;;;5030746;28;20473;-85
2022/05/04 09:03:50;;;;;;;21.90;20.80;;;14.90;54.30;;;;;;5031183;28;20234;-85
2022/05/04 09:06:31;;;;;;;22.80;21.30;;;14.90;53.60;;;;;;5030734;28;20767;-85
2022/05/04 09:08:58;;;;;;;20.97;20.07;;;14.80;54.70;;;;;;5030658;28;20450;-85
2022/05/04 09:11:24;;;;;;;20.33;19.37;;;14.70;56.50;;;;;;5030269;28;20490;-85
2022/05/04 09:13:50;;;;;;;19.77;18.83;;;14.70;58.00;;;;;;5031892;28;20415;-84
2022/05/04 09:16:26;;;;;;;19.63;18.83;;;14.70;58.80;;;;;;5030563;28;20501;-85
2022/05/04 09:18:51;;;;;;;19.50;18.60;;;14.70;60.70;;;;;;5030763;28;20415;-85
2022/05/04 09:21:23;;;;;;;19.53;18.63;;;14.70;61.50;;;;;;5030218;28;20463;-85
2022/05/04 09:23:53;;;;;;;21.47;20.30;;;14.70;61.10;;;;;;5030413;28;20204;-84
2022/05/04 09:26:21;;;;;;;20.90;19.87;;;14.80;58.30;;;;;;5030336;28;20454;-85
2022/05/04 09:28:57;;;;;;;23.47;22.20;;;14.80;58.00;;;;;;5030449;28;20427;-84
2022/05/04 09:31:28;;;;;;;20.37;19.30;;;14.70;59.70;;;;;;5030394;28;20494;-85
2022/05/04 09:33:56;;;;;;;20.97;19.60;;;14.70;60.30;;;;;;5030461;28;20514;-85
2022/05/04 09:45:14;;;;;;;20.47;19.10;;;14.60;67.50;;;;;;5014753;28;20418;-84
2022/05/04 09:47:45;;;;;;;21.47;20.17;;;14.70;65.60;;;;;;5015029;28;20824;-84
2022/05/04 09:50:12;;;;;;;19.23;17.93;;;14.70;64.90;;;;;;5030003;28;20419;-84
2022/05/04 09:52:48;;;;;;;23.60;21.87;;;14.80;67.60;;;;;;5034514;28;20463;-85
2022/05/04 09:55:15;;;;;;;19.13;17.63;;;14.80;68.30;;;;;;5034252;28;20419;-85
2022/05/04 09:57:43;;;;;;;19.27;17.97;;;14.90;66.50;;;;;;5034118;28;20477;-85
2022/05/04 10:00:10;;;;;;;19.53;17.93;;;15.00;69.00;;;;;;5033844;28;21061;-85
2022/05/04 10:02:37;;;;;;;18.50;17.17;;;15.10;68.50;;;;;;5029468;28;20420;-84
2022/05/04 10:05:04;;;;;;;20.17;18.70;;;15.30;66.20;;;;;;5033910;28;20435;-84
2022/05/04 10:07:31;;;;;;;20.90;19.40;;;15.40;65.50;;;;;;5028351;28;20522;-83
2022/05/04 10:09:56;;;;;;;18.63;17.50;;;15.50;64.40;;;;;;5030368;28;20425;-85
2022/05/04 10:12:26;;;;;;;21.40;19.80;;;15.50;64.70;;;;;;5023328;28;20479;-86
2022/05/04 10:14:53;;;;;;;20.40;19.03;;;15.50;64.40;;;;;;5023659;28;20779;-87
2022/05/04 10:17:25;;;;;;;21.00;19.80;;;15.60;61.90;;;;;;5034046;28;20415;-87
2022/05/04 10:20:14;;;;;;;21.00;19.90;;;15.60;61.20;;;;;;5034752;28;20420;-87
2022/05/04 10:23:22;;;;;;;24.70;23.20;;;15.60;62.10;;;;;;5034923;28;21029;-83
2022/05/04 10:25:57;;;;;;;22.90;21.47;;;15.80;63.10;;;;;;5023753;28;20423;-87
2022/05/04 10:28:23;;;;;;;22.13;20.50;;;16.00;59.90;;;;;;5033617;28;20419;-83
2022/05/04 10:30:56;;;;;;;23.10;21.70;;;16.00;56.00;;;;;;5033562;28;20998;-82
2022/05/04 10:33:33;;;;;;;23.93;22.63;;;16.10;55.50;;;;;;5033277;28;20427;-82
2022/05/04 10:36:29;;;;;;;22.90;21.47;;;16.30;54.40;;;;;;5033240;28;20891;-82
2022/05/04 10:38:57;;;;;;;23.60;22.10;;;16.40;56.20;;;;;;5031999;28;20438;-83
2022/05/04 10:41:37;;;;;;;23.40;22.00;;;16.50;55.80;;;;;;5033543;28;20554;-83
2022/05/04 10:44:15;;;;;;;24.33;22.80;;;16.50;56.90;;;;;;5033815;28;20419;-83
2022/05/04 10:46:44;;;;;;;25.50;24.10;;;16.70;52.70;;;;;;5034297;28;20422;-82
2022/05/04 10:49:16;;;;;;;23.97;22.47;;;16.90;53.50;;;;;;5034455;28;20907;-82
2022/05/04 10:51:47;;;;;;;26.03;24.23;;;17.10;52.50;;;;;;5034053;28;20471;-82
2022/05/04 10:54:17;;;;;;;27.80;25.80;;;17.20;50.00;;;;;;5034119;28;20415;-86
2022/05/04 10:56:49;;;;;;;25.43;24.00;;;17.30;49.40;;;;;;5033076;28;20530;-82
2022/05/04 10:59:34;;;;;;;24.30;23.00;;;17.40;51.00;;;;;;5032203;28;20913;-83
2022/05/04 11:02:05;;;;;;;24.27;22.90;;;17.30;52.10;;;;;;5033082;28;20435;-82
2022/05/04 11:04:33;;;;;;;25.10;23.67;;;17.40;52.30;;;;;;5032683;28;20424;-83
2022/05/04 11:06:58;;;;;;;24.33;23.03;;;17.40;48.10;;;;;;5032758;28;20427;-82
2022/05/04 11:09:32;;;;;;;25.03;23.73;;;17.50;46.00;;;;;;5032295;28;20426;-82
2022/05/04 11:12:04;;;;;;;26.77;25.10;;;17.50;46.40;;;;;;5032556;28;20213;-83
2022/05/04 11:14:32;;;;;;;22.97;21.87;;;17.40;46.50;;;;;;5031954;28;20415;-82
2022/05/04 11:16:59;;;;;;;25.47;24.10;;;17.50;46.50;;;;;;5032305;28;20463;-82
2022/05/04 11:19:29;;;;;;;25.73;24.57;;;17.60;44.80;;;;;;5032048;28;20906;-82
2022/05/04 11:21:57;;;;;;;25.80;24.50;;;17.70;43.50;;;;;;5032393;28;20419;-83
2022/05/04 11:24:26;;;;;;;25.93;24.73;;;17.60;43.30;;;;;;5031734;28;20445;-82
2022/05/04 11:26:52;;;;;;;24.70;23.27;;;17.60;42.70;;;;;;5031530;28;20931;-82
2022/05/04 11:29:25;;;;;;;26.80;25.30;;;17.70;41.70;;;;;;5021402;28;20455;-83
2022/05/04 11:32:04;;;;;;;26.47;25.27;;;17.70;40.70;;;;;;5031951;28;20545;-82
2022/05/04 11:34:38;;;;;;;24.93;23.63;;;17.70;41.40;;;;;;5032116;28;20430;-83
2022/05/04 11:37:09;;;;;;;25.70;24.30;;;17.70;44.00;;;;;;5032417;28;20835;-82
2022/05/04 11:39:36;;;;;;;25.73;24.53;;;17.80;42.60;;;;;;5032180;28;20415;-82
2022/05/04 11:42:03;;;;;;;25.20;24.00;;;17.90;42.90;;;;;;5031905;28;20430;-83
2022/05/04 11:44:31;;;;;;;27.60;26.30;;;18.10;41.20;;;;;;5031863;28;20426;-82
2022/05/04 11:47:01;;;;;;;27.00;25.80;;;18.10;39.50;;;;;;5031994;28;20841;-81
2022/05/04 11:49:29;;;;;;;25.40;24.30;;;18.10;39.50;;;;;;5031772;28;20423;-81
2022/05/04 11:51:57;;;;;;;25.80;24.53;;;18.10;37.60;;;;;;5031571;28;20473;-82
2022/05/04 11:54:23;;;;;;;25.77;24.67;;;18.00;36.30;;;;;;5031699;28;20411;-82
2022/05/04 11:56:49;;;;;;;25.07;23.87;;;18.00;37.90;;;;;;5031787;28;20423;-82
2022/05/04 11:59:15;;;;;;;25.20;24.10;;;17.90;38.20;;;;;;5031081;28;20418;-82
2022/05/04 12:01:41;;;;;;;25.60;24.50;;;18.00;37.00;;;;;;5031182;28;20560;-82
2022/05/04 12:04:09;;;;;;;25.40;24.40;;;18.00;36.50;;;;;;5031329;28;20427;-83
2022/05/04 12:06:35;;;;;;;26.30;25.10;;;18.10;38.00;;;;;;5031339;28;20180;-82
2022/05/04 12:09:02;;;;;;;25.20;23.70;;;18.10;38.90;;;;;;5031430;28;20776;-82
2022/05/04 12:11:29;;;;;;;25.83;24.63;;;18.20;37.40;;;;;;5031087;28;20458;-83
2022/05/04 12:13:56;;;;;;;25.07;23.77;;;18.20;37.20;;;;;;5031595;28;20510;-82
2022/05/04 12:16:23;;;;;;;25.43;24.33;;;18.30;35.00;;;;;;5031599;28;20419;-82
2022/05/04 12:18:49;;;;;;;24.57;23.30;;;18.20;33.50;;;;;;5031556;28;20427;-82
2022/05/04 12:21:18;;;;;;;23.90;22.90;;;18.10;36.30;;;;;;5031247;28;20485;-81
2022/05/04 12:23:45;;;;;;;25.67;24.57;;;18.10;35.50;;;;;;5031112;28;20528;-82
2022/05/04 12:26:12;;;;;;;24.80;23.57;;;18.10;35.30;;;;;;5030454;28;20430;-82
2022/05/04 12:28:39;;;;;;;24.50;23.50;;;18.10;37.40;;;;;;5030912;28;20423;-82
2022/05/04 12:33:49;;;;;;;25.30;24.10;;;18.10;38.20;;;;;;5032464;28;20687;-82
2022/05/04 12:36:18;;;;;;;24.73;23.70;;;18.00;35.60;;;;;;5030844;28;20416;-82
2022/05/04 12:38:46;;;;;;;24.20;23.20;;;18.00;35.60;;;;;;5031367;28;20466;-83
2022/05/04 12:41:15;;;;;;;23.40;22.50;;;17.90;35.90;;;;;;5031062;28;20442;-83
2022/05/04 12:43:41;;;;;;;24.20;23.20;;;17.80;35.40;;;;;;5031019;28;20431;-81
2022/05/04 12:46:15;;;;;;;24.70;23.70;;;17.90;34.30;;;;;;5023489;28;20427;-83
2022/05/04 12:48:43;;;;;;;24.57;23.57;;;17.90;33.70;;;;;;5031044;28;20435;-82
2022/05/04 12:51:10;;;;;;;23.70;22.70;;;17.90;32.70;;;;;;5030580;28;20462;-82
2022/05/04 12:53:39;;;;;;;23.73;22.43;;;18.00;33.40;;;;;;5030526;28;20423;-83
2022/05/04 12:58:53;;;;;;;24.20;23.10;;;18.10;33.60;;;;;;5032668;28;20554;-82
2022/05/04 13:01:23;;;;;;;26.40;25.00;;;18.20;32.90;;;;;;5030985;28;20518;-84
2022/05/04 13:03:50;;;;;;;23.90;22.80;;;18.20;35.20;;;;;;5030841;28;21018;-83
2022/05/04 13:06:22;;;;;;;24.70;23.60;;;18.20;36.00;;;;;;5029164;28;20435;-83